Santa Cruz, CA

3:17 PM PST on February 28, 2015 (GMT -0800)
KCASANTA115 | Change Station
CLOSE
Current Station
Personal Weather Station
Location: Santa Cruz, CA
Elevation: 95 ft
Nearby Weather Stations

Elev 95 ft 36.98 °N, 122.01 °W | Updated 7 minutes ago

Rain
Rain
57.2 °F
Feels Like 57.2 °F
N
2.0
Wind Variable Wind from SSW
Gusts 6.0 mph

Today
High -- | Low -- °F
--% Chance of Precip.
Yesterday
High -- | Low -- °F
Precip. -- in
6:40 AM 6:01 PM
Waxing Gibbous, 80% visible
Pressure 29.82 in
Visibility 6.0 miles
Clouds Overcast 2900 ft
Dew Point 48 °F
Humidity 71%
Rainfall 0.04 in
Snow Depth Not available.
UV 0.0 out of 12
Pollen 7.20 out of 12
Air Quality Not available.
Flu Activity Not available.
METAR KWVI 282253Z AUTO 36006KT 6SM RA BR OVC029 11/08 A2981 RMK AO2 LTG DSNT N SLP096 P0007 T01060083

More Conditions Fewer Conditions

Pressure 29.82 in
Visibility 6.0 miles
Clouds Overcast 2900 ft
Dew Point 48 °F
Humidity 71%
Rainfall 0.04 in
Snow Depth Not available.
UV 0.0 out of 12
Pollen 7.20 out of 12
Air Quality Not available.
Flu Activity Not available.
METAR KWVI 282253Z AUTO 36006KT 6SM RA BR OVC029 11/08 A2981 RMK AO2 LTG DSNT N SLP096 P0007 T01060083

More Conditions Fewer Conditions

10-Day Weather Forecast

Almanac

Astronomy

Feb. 28, 2015 Rise Set
Actual Time
Civil Twilight
Nautical Twilight
Astronomical Twilight
Moon
Length of Visible Light
Length of Day
Tomorrow will be .
, % of the Moon is Illuminated

Today's Extremes

State Highs State Lows

Community

WunderPhotos

Upload Photos

1,801,166 photos uploaded!

WunderBlogs® & News

Nearby

Air Quality

  Air Quality AQ Index Pollutant
Not available.

Snow Depth

Station Depth Elevation

Earthquake Activity

City Distance Mag. Time & Date
Minimum magnitude displayed is 2.5.

Coastal Water Temperatures

Place Temperature

Nearby Weather Stations